Kinzua, Oregon
Current Conditions -  °F | °C
As of 1:55 AM on Friday 28 Nov 2014 (Local Time) from KS39 Reporting Station
Overcast Overcast  
Wind Chill: 50°   Ceiling: 7500
Heat Index: 50°   Visibility: 10mi
Dew Point: 36°   Wind: 13mph
Humidity: 58%   Direction: 200°SSW
Pressure: 29.86"   Gusts: NA
Location:  44.9464°N, 120.192°W
Report Text: KS39 280955Z AUTO 20011KT 10SM BKN075 OVC090 10/02 A2986 RMK AO2
Loading
Personal Weather Stations






























Interactive Weather Map New forecast layout! Learn more

10-Day Weather Forecast

Advertisements
Track Severe Weather on mobile